sensor_id;sensor_type;location;lat;lon;timestamp;P1;durP1;ratioP1;P2;durP2;ratioP2
75191;SDS011;63771;52.580;9.734;2023-04-12T00:02:10;5.88;;;3.13;;
75191;SDS011;63771;52.580;9.734;2023-04-12T00:04:35;3.93;;;3.17;;
75191;SDS011;63771;52.580;9.734;2023-04-12T00:07:01;3.75;;;3.30;;
75191;SDS011;63771;52.580;9.734;2023-04-12T00:09:29;3.67;;;3.33;;
75191;SDS011;63771;52.580;9.734;2023-04-12T00:11:55;4.38;;;2.80;;
75191;SDS011;63771;52.580;9.734;2023-04-12T00:14:22;4.05;;;3.45;;
75191;SDS011;63771;52.580;9.734;2023-04-12T00:16:47;5.80;;;3.10;;
75191;SDS011;63771;52.580;9.734;2023-04-12T00:19:13;6.47;;;3.03;;
75191;SDS011;63771;52.580;9.734;2023-04-12T00:21:40;6.32;;;3.40;;
75191;SDS011;63771;52.580;9.734;2023-04-12T00:24:06;3.27;;;2.83;;
75191;SDS011;63771;52.580;9.734;2023-04-12T00:26:31;3.03;;;2.72;;
75191;SDS011;63771;52.580;9.734;2023-04-12T00:28:56;6.47;;;2.92;;
75191;SDS011;63771;52.580;9.734;2023-04-12T00:31:22;4.30;;;3.20;;
75191;SDS011;63771;52.580;9.734;2023-04-12T00:33:47;4.35;;;3.40;;
75191;SDS011;63771;52.580;9.734;2023-04-12T00:36:13;4.73;;;3.10;;
75191;SDS011;63771;52.580;9.734;2023-04-12T00:38:38;4.03;;;3.17;;
75191;SDS011;63771;52.580;9.734;2023-04-12T00:41:03;3.60;;;3.30;;
75191;SDS011;63771;52.580;9.734;2023-04-12T00:43:29;6.45;;;3.75;;
75191;SDS011;63771;52.580;9.734;2023-04-12T00:45:54;4.07;;;3.20;;
75191;SDS011;63771;52.580;9.734;2023-04-12T00:48:24;5.65;;;3.30;;
75191;SDS011;63771;52.580;9.734;2023-04-12T00:50:51;4.88;;;3.58;;
75191;SDS011;63771;52.580;9.734;2023-04-12T00:53:19;6.80;;;4.10;;
75191;SDS011;63771;52.580;9.734;2023-04-12T00:55:46;4.45;;;3.30;;
75191;SDS011;63771;52.580;9.734;2023-04-12T00:58:14;4.47;;;2.65;;
75191;SDS011;63771;52.580;9.734;2023-04-12T01:00:39;6.03;;;3.88;;
75191;SDS011;63771;52.580;9.734;2023-04-12T01:03:05;4.10;;;2.95;;
75191;SDS011;63771;52.580;9.734;2023-04-12T01:05:34;3.90;;;2.90;;
75191;SDS011;63771;52.580;9.734;2023-04-12T01:08:06;3.35;;;3.10;;
75191;SDS011;63771;52.580;9.734;2023-04-12T01:13:48;6.35;;;2.97;;
75191;SDS011;63771;52.580;9.734;2023-04-12T01:19:28;6.85;;;3.35;;
75191;SDS011;63771;52.580;9.734;2023-04-12T01:30:38;2.88;;;2.67;;
75191;SDS011;63771;52.580;9.734;2023-04-12T01:33:06;3.47;;;2.97;;
75191;SDS011;63771;52.580;9.734;2023-04-12T01:35:35;3.53;;;3.05;;
75191;SDS011;63771;52.580;9.734;2023-04-12T01:38:01;4.57;;;3.60;;
75191;SDS011;63771;52.580;9.734;2023-04-12T01:40:30;7.22;;;3.28;;
75191;SDS011;63771;52.580;9.734;2023-04-12T01:45:30;4.63;;;4.00;;
75191;SDS011;63771;52.580;9.734;2023-04-12T01:47:56;6.00;;;3.80;;
75191;SDS011;63771;52.580;9.734;2023-04-12T01:50:22;5.30;;;3.67;;
75191;SDS011;63771;52.580;9.734;2023-04-12T01:52:53;6.72;;;3.88;;
75191;SDS011;63771;52.580;9.734;2023-04-12T01:55:25;4.15;;;3.85;;
75191;SDS011;63771;52.580;9.734;2023-04-12T01:57:55;5.50;;;3.58;;
75191;SDS011;63771;52.580;9.734;2023-04-12T02:00:21;5.88;;;3.83;;
75191;SDS011;63771;52.580;9.734;2023-04-12T02:02:47;6.18;;;4.32;;
75191;SDS011;63771;52.580;9.734;2023-04-12T02:05:13;7.68;;;4.25;;
75191;SDS011;63771;52.580;9.734;2023-04-12T02:07:39;8.73;;;4.93;;
75191;SDS011;63771;52.580;9.734;2023-04-12T02:10:06;8.57;;;4.57;;
75191;SDS011;63771;52.580;9.734;2023-04-12T02:12:31;7.97;;;4.40;;
75191;SDS011;63771;52.580;9.734;2023-04-12T02:14:56;6.33;;;4.10;;
75191;SDS011;63771;52.580;9.734;2023-04-12T02:17:22;5.20;;;4.30;;
75191;SDS011;63771;52.580;9.734;2023-04-12T02:19:47;6.07;;;4.25;;
75191;SDS011;63771;52.580;9.734;2023-04-12T02:22:12;5.63;;;3.70;;
75191;SDS011;63771;52.580;9.734;2023-04-12T02:24:38;5.50;;;3.93;;
75191;SDS011;63771;52.580;9.734;2023-04-12T02:27:03;5.97;;;3.88;;
75191;SDS011;63771;52.580;9.734;2023-04-12T02:29:30;7.93;;;4.15;;
75191;SDS011;63771;52.580;9.734;2023-04-12T02:31:55;7.60;;;4.15;;
75191;SDS011;63771;52.580;9.734;2023-04-12T02:34:20;9.97;;;4.07;;
75191;SDS011;63771;52.580;9.734;2023-04-12T02:36:46;9.07;;;4.28;;
75191;SDS011;63771;52.580;9.734;2023-04-12T02:39:12;10.20;;;5.13;;
75191;SDS011;63771;52.580;9.734;2023-04-12T02:41:38;10.05;;;5.03;;
75191;SDS011;63771;52.580;9.734;2023-04-12T02:44:03;7.57;;;4.47;;
75191;SDS011;63771;52.580;9.734;2023-04-12T02:46:29;7.40;;;4.13;;
75191;SDS011;63771;52.580;9.734;2023-04-12T02:48:54;7.72;;;4.32;;
75191;SDS011;63771;52.580;9.734;2023-04-12T02:51:20;9.00;;;4.65;;
75191;SDS011;63771;52.580;9.734;2023-04-12T02:53:45;8.30;;;4.27;;
75191;SDS011;63771;52.580;9.734;2023-04-12T02:56:10;7.30;;;5.10;;
75191;SDS011;63771;52.580;9.734;2023-04-12T02:58:36;7.35;;;4.57;;
75191;SDS011;63771;52.580;9.734;2023-04-12T03:01:02;7.97;;;4.82;;
75191;SDS011;63771;52.580;9.734;2023-04-12T03:03:32;13.95;;;4.68;;
75191;SDS011;63771;52.580;9.734;2023-04-12T03:05:58;8.63;;;5.35;;
75191;SDS011;63771;52.580;9.734;2023-04-12T03:08:24;7.45;;;4.88;;
75191;SDS011;63771;52.580;9.734;2023-04-12T03:10:49;7.03;;;4.47;;
75191;SDS011;63771;52.580;9.734;2023-04-12T03:13:15;6.57;;;4.43;;
75191;SDS011;63771;52.580;9.734;2023-04-12T03:15:40;9.13;;;5.03;;
75191;SDS011;63771;52.580;9.734;2023-04-12T03:18:07;7.20;;;4.60;;
75191;SDS011;63771;52.580;9.734;2023-04-12T03:20:33;7.75;;;4.60;;
75191;SDS011;63771;52.580;9.734;2023-04-12T03:22:59;8.30;;;4.40;;
75191;SDS011;63771;52.580;9.734;2023-04-12T03:25:24;6.40;;;4.47;;
75191;SDS011;63771;52.580;9.734;2023-04-12T03:27:49;7.40;;;4.57;;
75191;SDS011;63771;52.580;9.734;2023-04-12T03:30:15;7.00;;;4.33;;
75191;SDS011;63771;52.580;9.734;2023-04-12T03:32:40;6.63;;;4.10;;
75191;SDS011;63771;52.580;9.734;2023-04-12T03:35:07;6.82;;;3.97;;
75191;SDS011;63771;52.580;9.734;2023-04-12T03:37:33;8.10;;;4.50;;
75191;SDS011;63771;52.580;9.734;2023-04-12T03:39:59;4.88;;;3.35;;
75191;SDS011;63771;52.580;9.734;2023-04-12T03:42:25;5.70;;;3.83;;
75191;SDS011;63771;52.580;9.734;2023-04-12T03:44:51;4.75;;;3.47;;
75191;SDS011;63771;52.580;9.734;2023-04-12T03:47:17;6.40;;;3.55;;
75191;SDS011;63771;52.580;9.734;2023-04-12T03:49:43;3.30;;;3.00;;
75191;SDS011;63771;52.580;9.734;2023-04-12T03:52:08;6.20;;;3.67;;
75191;SDS011;63771;52.580;9.734;2023-04-12T03:54:34;7.45;;;3.33;;
75191;SDS011;63771;52.580;9.734;2023-04-12T03:56:59;4.53;;;3.30;;
75191;SDS011;63771;52.580;9.734;2023-04-12T03:59:25;3.20;;;2.88;;
75191;SDS011;63771;52.580;9.734;2023-04-12T04:01:51;4.65;;;3.08;;
75191;SDS011;63771;52.580;9.734;2023-04-12T04:04:17;3.50;;;3.05;;
75191;SDS011;63771;52.580;9.734;2023-04-12T04:06:42;3.50;;;2.92;;
75191;SDS011;63771;52.580;9.734;2023-04-12T04:09:08;4.25;;;2.53;;
75191;SDS011;63771;52.580;9.734;2023-04-12T04:11:33;4.23;;;2.90;;
75191;SDS011;63771;52.580;9.734;2023-04-12T04:13:59;4.43;;;3.00;;
75191;SDS011;63771;52.580;9.734;2023-04-12T04:16:24;3.60;;;3.28;;
75191;SDS011;63771;52.580;9.734;2023-04-12T04:18:49;4.17;;;2.97;;
75191;SDS011;63771;52.580;9.734;2023-04-12T04:21:15;4.03;;;3.17;;
75191;SDS011;63771;52.580;9.734;2023-04-12T04:23:40;3.43;;;2.63;;
75191;SDS011;63771;52.580;9.734;2023-04-12T04:26:08;6.25;;;3.78;;
75191;SDS011;63771;52.580;9.734;2023-04-12T04:28:35;4.20;;;3.38;;
75191;SDS011;63771;52.580;9.734;2023-04-12T04:31:04;4.10;;;2.88;;
75191;SDS011;63771;52.580;9.734;2023-04-12T04:33:33;4.50;;;3.20;;
75191;SDS011;63771;52.580;9.734;2023-04-12T04:35:58;7.22;;;3.08;;
75191;SDS011;63771;52.580;9.734;2023-04-12T04:38:23;4.78;;;2.67;;
75191;SDS011;63771;52.580;9.734;2023-04-12T04:40:50;5.30;;;2.63;;
75191;SDS011;63771;52.580;9.734;2023-04-12T04:43:19;4.90;;;2.80;;
75191;SDS011;63771;52.580;9.734;2023-04-12T04:45:45;5.15;;;4.00;;
75191;SDS011;63771;52.580;9.734;2023-04-12T04:48:14;6.30;;;2.92;;
75191;SDS011;63771;52.580;9.734;2023-04-12T04:50:40;6.82;;;3.45;;
75191;SDS011;63771;52.580;9.734;2023-04-12T04:53:06;5.57;;;3.42;;
75191;SDS011;63771;52.580;9.734;2023-04-12T04:55:31;4.23;;;2.83;;
75191;SDS011;63771;52.580;9.734;2023-04-12T04:57:56;8.30;;;4.60;;
75191;SDS011;63771;52.580;9.734;2023-04-12T05:00:22;6.40;;;3.43;;
75191;SDS011;63771;52.580;9.734;2023-04-12T05:02:49;5.80;;;3.08;;
75191;SDS011;63771;52.580;9.734;2023-04-12T05:05:15;5.28;;;3.63;;
75191;SDS011;63771;52.580;9.734;2023-04-12T05:07:41;5.43;;;3.17;;
75191;SDS011;63771;52.580;9.734;2023-04-12T05:10:08;4.43;;;3.70;;
75191;SDS011;63771;52.580;9.734;2023-04-12T05:12:34;4.00;;;2.95;;
75191;SDS011;63771;52.580;9.734;2023-04-12T05:15:00;6.30;;;3.63;;
75191;SDS011;63771;52.580;9.734;2023-04-12T05:17:26;6.95;;;3.42;;
75191;SDS011;63771;52.580;9.734;2023-04-12T05:19:52;7.57;;;3.15;;
75191;SDS011;63771;52.580;9.734;2023-04-12T05:22:17;6.82;;;3.50;;
75191;SDS011;63771;52.580;9.734;2023-04-12T05:24:44;4.90;;;3.13;;
75191;SDS011;63771;52.580;9.734;2023-04-12T05:27:10;5.15;;;3.30;;
75191;SDS011;63771;52.580;9.734;2023-04-12T05:29:35;5.57;;;3.08;;
75191;SDS011;63771;52.580;9.734;2023-04-12T05:32:01;3.40;;;3.10;;
75191;SDS011;63771;52.580;9.734;2023-04-12T05:34:26;4.03;;;3.60;;
75191;SDS011;63771;52.580;9.734;2023-04-12T05:36:52;4.05;;;2.55;;
75191;SDS011;63771;52.580;9.734;2023-04-12T05:39:17;7.07;;;3.43;;
75191;SDS011;63771;52.580;9.734;2023-04-12T05:41:42;10.93;;;3.97;;
75191;SDS011;63771;52.580;9.734;2023-04-12T05:44:07;6.33;;;2.97;;
75191;SDS011;63771;52.580;9.734;2023-04-12T05:46:33;6.13;;;3.57;;
75191;SDS011;63771;52.580;9.734;2023-04-12T05:48:58;6.93;;;3.90;;
75191;SDS011;63771;52.580;9.734;2023-04-12T05:51:23;6.07;;;4.40;;
75191;SDS011;63771;52.580;9.734;2023-04-12T05:53:50;6.95;;;5.07;;
75191;SDS011;63771;52.580;9.734;2023-04-12T05:56:15;6.70;;;4.97;;
75191;SDS011;63771;52.580;9.734;2023-04-12T05:58:41;7.63;;;4.40;;
75191;SDS011;63771;52.580;9.734;2023-04-12T06:01:06;10.95;;;5.13;;
75191;SDS011;63771;52.580;9.734;2023-04-12T06:03:31;12.65;;;5.50;;
75191;SDS011;63771;52.580;9.734;2023-04-12T06:05:57;10.75;;;5.15;;
75191;SDS011;63771;52.580;9.734;2023-04-12T06:08:22;4.38;;;3.25;;
75191;SDS011;63771;52.580;9.734;2023-04-12T06:10:47;5.47;;;3.83;;
75191;SDS011;63771;52.580;9.734;2023-04-12T06:13:13;6.72;;;3.42;;
75191;SDS011;63771;52.580;9.734;2023-04-12T06:15:38;4.90;;;3.75;;
75191;SDS011;63771;52.580;9.734;2023-04-12T06:18:05;5.78;;;3.88;;
75191;SDS011;63771;52.580;9.734;2023-04-12T06:20:31;4.53;;;3.08;;
75191;SDS011;63771;52.580;9.734;2023-04-12T06:22:56;5.33;;;3.53;;
75191;SDS011;63771;52.580;9.734;2023-04-12T06:25:22;4.50;;;3.30;;
75191;SDS011;63771;52.580;9.734;2023-04-12T06:27:48;5.75;;;4.05;;
75191;SDS011;63771;52.580;9.734;2023-04-12T06:30:13;4.03;;;3.40;;
75191;SDS011;63771;52.580;9.734;2023-04-12T06:32:38;8.35;;;2.60;;
75191;SDS011;63771;52.580;9.734;2023-04-12T06:35:04;2.60;;;2.20;;
75191;SDS011;63771;52.580;9.734;2023-04-12T06:37:30;2.22;;;2.13;;
75191;SDS011;63771;52.580;9.734;2023-04-12T06:39:55;4.43;;;2.38;;
75191;SDS011;63771;52.580;9.734;2023-04-12T06:42:20;3.30;;;2.47;;
75191;SDS011;63771;52.580;9.734;2023-04-12T06:44:46;5.97;;;3.13;;
75191;SDS011;63771;52.580;9.734;2023-04-12T06:47:11;2.87;;;2.27;;
75191;SDS011;63771;52.580;9.734;2023-04-12T06:49:37;2.40;;;2.30;;
75191;SDS011;63771;52.580;9.734;2023-04-12T06:52:02;3.42;;;2.03;;
75191;SDS011;63771;52.580;9.734;2023-04-12T06:54:28;6.80;;;2.57;;
75191;SDS011;63771;52.580;9.734;2023-04-12T06:56:53;1.60;;;1.50;;
75191;SDS011;63771;52.580;9.734;2023-04-12T06:59:18;3.00;;;2.13;;
75191;SDS011;63771;52.580;9.734;2023-04-12T07:01:44;4.28;;;2.20;;
75191;SDS011;63771;52.580;9.734;2023-04-12T07:04:10;3.70;;;2.40;;
75191;SDS011;63771;52.580;9.734;2023-04-12T07:06:35;7.60;;;3.42;;
75191;SDS011;63771;52.580;9.734;2023-04-12T07:09:01;4.50;;;2.20;;
75191;SDS011;63771;52.580;9.734;2023-04-12T07:11:26;5.27;;;2.80;;
75191;SDS011;63771;52.580;9.734;2023-04-12T07:13:52;1.80;;;1.70;;
75191;SDS011;63771;52.580;9.734;2023-04-12T07:16:17;5.53;;;1.95;;
75191;SDS011;63771;52.580;9.734;2023-04-12T07:18:42;1.97;;;1.67;;
75191;SDS011;63771;52.580;9.734;2023-04-12T07:21:08;2.35;;;2.17;;
75191;SDS011;63771;52.580;9.734;2023-04-12T07:23:33;2.33;;;2.13;;
75191;SDS011;63771;52.580;9.734;2023-04-12T07:25:59;1.90;;;1.80;;
75191;SDS011;63771;52.580;9.734;2023-04-12T07:28:25;4.50;;;2.50;;
75191;SDS011;63771;52.580;9.734;2023-04-12T07:30:51;4.22;;;2.10;;
75191;SDS011;63771;52.580;9.734;2023-04-12T07:33:16;2.90;;;1.73;;
75191;SDS011;63771;52.580;9.734;2023-04-12T07:35:41;2.80;;;2.10;;
75191;SDS011;63771;52.580;9.734;2023-04-12T07:38:07;5.27;;;1.97;;
75191;SDS011;63771;52.580;9.734;2023-04-12T07:40:32;3.35;;;1.75;;
75191;SDS011;63771;52.580;9.734;2023-04-12T07:42:57;3.60;;;1.50;;
75191;SDS011;63771;52.580;9.734;2023-04-12T07:45:23;3.63;;;2.10;;
75191;SDS011;63771;52.580;9.734;2023-04-12T07:47:48;3.63;;;2.03;;
75191;SDS011;63771;52.580;9.734;2023-04-12T07:50:14;3.58;;;1.63;;
75191;SDS011;63771;52.580;9.734;2023-04-12T07:52:40;1.90;;;1.75;;
75191;SDS011;63771;52.580;9.734;2023-04-12T07:55:06;2.17;;;1.90;;
75191;SDS011;63771;52.580;9.734;2023-04-12T07:57:31;2.28;;;2.03;;
75191;SDS011;63771;52.580;9.734;2023-04-12T07:59:56;3.00;;;1.57;;
75191;SDS011;63771;52.580;9.734;2023-04-12T08:02:22;2.10;;;1.63;;
75191;SDS011;63771;52.580;9.734;2023-04-12T08:04:51;2.42;;;1.50;;
75191;SDS011;63771;52.580;9.734;2023-04-12T08:07:16;2.47;;;1.60;;
75191;SDS011;63771;52.580;9.734;2023-04-12T08:09:42;2.90;;;1.70;;
75191;SDS011;63771;52.580;9.734;2023-04-12T08:12:07;5.70;;;1.87;;
75191;SDS011;63771;52.580;9.734;2023-04-12T08:14:33;5.88;;;1.67;;
75191;SDS011;63771;52.580;9.734;2023-04-12T08:16:58;3.60;;;1.80;;
75191;SDS011;63771;52.580;9.734;2023-04-12T08:19:23;5.93;;;1.88;;
75191;SDS011;63771;52.580;9.734;2023-04-12T08:21:49;3.55;;;1.90;;
75191;SDS011;63771;52.580;9.734;2023-04-12T08:24:14;3.50;;;2.67;;
75191;SDS011;63771;52.580;9.734;2023-04-12T08:26:39;1.87;;;1.33;;
75191;SDS011;63771;52.580;9.734;2023-04-12T08:29:05;2.90;;;1.50;;
75191;SDS011;63771;52.580;9.734;2023-04-12T08:31:30;2.80;;;1.80;;
75191;SDS011;63771;52.580;9.734;2023-04-12T08:33:57;3.95;;;1.45;;
75191;SDS011;63771;52.580;9.734;2023-04-12T08:36:23;2.05;;;1.40;;
75191;SDS011;63771;52.580;9.734;2023-04-12T08:38:49;6.65;;;1.50;;
75191;SDS011;63771;52.580;9.734;2023-04-12T08:41:17;3.97;;;1.40;;
75191;SDS011;63771;52.580;9.734;2023-04-12T08:43:43;4.10;;;1.92;;
75191;SDS011;63771;52.580;9.734;2023-04-12T08:46:10;1.50;;;1.40;;
75191;SDS011;63771;52.580;9.734;2023-04-12T08:48:39;1.88;;;1.25;;
75191;SDS011;63771;52.580;9.734;2023-04-12T08:51:07;2.47;;;1.40;;
75191;SDS011;63771;52.580;9.734;2023-04-12T08:53:33;3.88;;;1.85;;
75191;SDS011;63771;52.580;9.734;2023-04-12T08:55:58;5.60;;;2.25;;
75191;SDS011;63771;52.580;9.734;2023-04-12T08:58:24;2.97;;;1.73;;
75191;SDS011;63771;52.580;9.734;2023-04-12T09:00:50;3.70;;;1.67;;
75191;SDS011;63771;52.580;9.734;2023-04-12T09:03:16;2.42;;;1.70;;
75191;SDS011;63771;52.580;9.734;2023-04-12T09:05:41;3.37;;;1.87;;
75191;SDS011;63771;52.580;9.734;2023-04-12T09:08:06;4.13;;;1.60;;
75191;SDS011;63771;52.580;9.734;2023-04-12T09:10:35;2.83;;;1.70;;
75191;SDS011;63771;52.580;9.734;2023-04-12T09:13:02;2.35;;;1.60;;
75191;SDS011;63771;52.580;9.734;2023-04-12T09:15:28;3.22;;;1.25;;
75191;SDS011;63771;52.580;9.734;2023-04-12T09:18:04;2.67;;;1.50;;
75191;SDS011;63771;52.580;9.734;2023-04-12T09:20:32;2.17;;;1.45;;
75191;SDS011;63771;52.580;9.734;2023-04-12T09:22:57;5.95;;;1.80;;
75191;SDS011;63771;52.580;9.734;2023-04-12T09:25:34;2.35;;;1.80;;
75191;SDS011;63771;52.580;9.734;2023-04-12T09:28:01;4.80;;;2.90;;
75191;SDS011;63771;52.580;9.734;2023-04-12T09:30:26;11.47;;;3.27;;
75191;SDS011;63771;52.580;9.734;2023-04-12T09:32:51;7.03;;;4.30;;
75191;SDS011;63771;52.580;9.734;2023-04-12T09:35:18;5.13;;;2.88;;
75191;SDS011;63771;52.580;9.734;2023-04-12T09:37:57;4.63;;;2.42;;
75191;SDS011;63771;52.580;9.734;2023-04-12T09:40:31;5.72;;;2.30;;
75191;SDS011;63771;52.580;9.734;2023-04-12T09:43:01;1.92;;;1.83;;
75191;SDS011;63771;52.580;9.734;2023-04-12T09:45:27;3.28;;;2.45;;
75191;SDS011;63771;52.580;9.734;2023-04-12T09:47:55;4.85;;;2.25;;
75191;SDS011;63771;52.580;9.734;2023-04-12T09:50:21;3.97;;;1.85;;
75191;SDS011;63771;52.580;9.734;2023-04-12T09:52:50;3.97;;;2.65;;
75191;SDS011;63771;52.580;9.734;2023-04-12T09:55:17;3.13;;;2.17;;
75191;SDS011;63771;52.580;9.734;2023-04-12T09:57:45;2.63;;;2.42;;
75191;SDS011;63771;52.580;9.734;2023-04-12T10:00:11;2.22;;;2.05;;
75191;SDS011;63771;52.580;9.734;2023-04-12T10:02:41;2.38;;;2.20;;
75191;SDS011;63771;52.580;9.734;2023-04-12T10:05:12;3.00;;;1.92;;
75191;SDS011;63771;52.580;9.734;2023-04-12T10:07:39;2.35;;;2.10;;
75191;SDS011;63771;52.580;9.734;2023-04-12T10:10:12;3.38;;;1.92;;
75191;SDS011;63771;52.580;9.734;2023-04-12T10:12:39;6.43;;;2.13;;
75191;SDS011;63771;52.580;9.734;2023-04-12T10:15:06;2.50;;;2.30;;
75191;SDS011;63771;52.580;9.734;2023-04-12T10:20:12;2.33;;;2.13;;
75191;SDS011;63771;52.580;9.734;2023-04-12T10:22:40;3.83;;;2.75;;
75191;SDS011;63771;52.580;9.734;2023-04-12T10:25:10;3.00;;;2.15;;
75191;SDS011;63771;52.580;9.734;2023-04-12T10:27:38;4.65;;;2.75;;
75191;SDS011;63771;52.580;9.734;2023-04-12T10:30:17;6.38;;;3.17;;
75191;SDS011;63771;52.580;9.734;2023-04-12T10:32:43;11.23;;;4.25;;
75191;SDS011;63771;52.580;9.734;2023-04-12T10:35:08;4.07;;;2.53;;
75191;SDS011;63771;52.580;9.734;2023-04-12T10:40:26;2.95;;;2.63;;
75191;SDS011;63771;52.580;9.734;2023-04-12T10:45:43;2.50;;;2.30;;
75191;SDS011;63771;52.580;9.734;2023-04-12T10:48:27;4.82;;;2.80;;
75191;SDS011;63771;52.580;9.734;2023-04-12T10:53:49;3.35;;;2.75;;
75191;SDS011;63771;52.580;9.734;2023-04-12T10:58:57;5.32;;;2.65;;
75191;SDS011;63771;52.580;9.734;2023-04-12T11:01:23;3.85;;;2.13;;
75191;SDS011;63771;52.580;9.734;2023-04-12T11:04:08;2.30;;;2.17;;
75191;SDS011;63771;52.580;9.734;2023-04-12T11:06:41;3.20;;;2.28;;
75191;SDS011;63771;52.580;9.734;2023-04-12T11:19:39;2.67;;;2.33;;
75191;SDS011;63771;52.580;9.734;2023-04-12T11:22:07;4.82;;;2.45;;
75191;SDS011;63771;52.580;9.734;2023-04-12T11:24:43;4.97;;;2.20;;
75191;SDS011;63771;52.580;9.734;2023-04-12T11:27:12;2.72;;;2.53;;
75191;SDS011;63771;52.580;9.734;2023-04-12T11:29:40;5.32;;;2.72;;
75191;SDS011;63771;52.580;9.734;2023-04-12T11:32:08;4.50;;;4.10;;
75191;SDS011;63771;52.580;9.734;2023-04-12T11:34:37;5.88;;;3.47;;
75191;SDS011;63771;52.580;9.734;2023-04-12T11:37:03;3.53;;;2.40;;
75191;SDS011;63771;52.580;9.734;2023-04-12T11:39:32;4.32;;;2.10;;
75191;SDS011;63771;52.580;9.734;2023-04-12T11:41:58;6.78;;;3.05;;
75191;SDS011;63771;52.580;9.734;2023-04-12T11:44:26;2.33;;;2.22;;
75191;SDS011;63771;52.580;9.734;2023-04-12T11:46:51;2.83;;;2.17;;
75191;SDS011;63771;52.580;9.734;2023-04-12T11:49:19;2.60;;;2.40;;
75191;SDS011;63771;52.580;9.734;2023-04-12T11:51:45;2.60;;;2.40;;
75191;SDS011;63771;52.580;9.734;2023-04-12T11:54:11;3.13;;;2.83;;
75191;SDS011;63771;52.580;9.734;2023-04-12T11:56:37;3.58;;;2.85;;
75191;SDS011;63771;52.580;9.734;2023-04-12T11:59:03;2.55;;;2.35;;
75191;SDS011;63771;52.580;9.734;2023-04-12T12:01:29;2.47;;;2.28;;
75191;SDS011;63771;52.580;9.734;2023-04-12T12:03:55;4.43;;;2.35;;
75191;SDS011;63771;52.580;9.734;2023-04-12T12:06:21;3.00;;;2.80;;
75191;SDS011;63771;52.580;9.734;2023-04-12T12:08:50;4.97;;;3.00;;
75191;SDS011;63771;52.580;9.734;2023-04-12T12:11:19;4.07;;;2.53;;
75191;SDS011;63771;52.580;9.734;2023-04-12T12:13:52;2.22;;;2.10;;
75191;SDS011;63771;52.580;9.734;2023-04-12T12:16:25;3.72;;;2.22;;
75191;SDS011;63771;52.580;9.734;2023-04-12T12:18:52;5.85;;;2.13;;
75191;SDS011;63771;52.580;9.734;2023-04-12T12:21:18;3.67;;;2.58;;
75191;SDS011;63771;52.580;9.734;2023-04-12T12:23:44;3.72;;;2.90;;
75191;SDS011;63771;52.580;9.734;2023-04-12T12:26:23;3.28;;;2.53;;
75191;SDS011;63771;52.580;9.734;2023-04-12T12:28:51;4.47;;;2.40;;
75191;SDS011;63771;52.580;9.734;2023-04-12T12:31:19;2.13;;;2.03;;
75191;SDS011;63771;52.580;9.734;2023-04-12T12:33:46;4.47;;;2.30;;
75191;SDS011;63771;52.580;9.734;2023-04-12T12:36:11;3.03;;;2.65;;
75191;SDS011;63771;52.580;9.734;2023-04-12T12:38:38;4.55;;;2.05;;
75191;SDS011;63771;52.580;9.734;2023-04-12T12:43:47;3.13;;;2.28;;
75191;SDS011;63771;52.580;9.734;2023-04-12T12:46:14;2.10;;;1.90;;
75191;SDS011;63771;52.580;9.734;2023-04-12T12:48:41;2.85;;;2.15;;
75191;SDS011;63771;52.580;9.734;2023-04-12T12:51:07;2.42;;;2.22;;
75191;SDS011;63771;52.580;9.734;2023-04-12T12:53:37;5.72;;;2.90;;
75191;SDS011;63771;52.580;9.734;2023-04-12T12:56:04;2.85;;;2.65;;
75191;SDS011;63771;52.580;9.734;2023-04-12T12:58:30;2.65;;;2.22;;
75191;SDS011;63771;52.580;9.734;2023-04-12T13:00:55;2.42;;;2.33;;
75191;SDS011;63771;52.580;9.734;2023-04-12T13:03:21;2.13;;;1.95;;
75191;SDS011;63771;52.580;9.734;2023-04-12T13:05:46;3.50;;;2.20;;
75191;SDS011;63771;52.580;9.734;2023-04-12T13:08:11;3.33;;;3.05;;
75191;SDS011;63771;52.580;9.734;2023-04-12T13:10:37;4.75;;;3.75;;
75191;SDS011;63771;52.580;9.734;2023-04-12T13:13:02;6.83;;;3.37;;
75191;SDS011;63771;52.580;9.734;2023-04-12T13:15:28;6.05;;;4.63;;
75191;SDS011;63771;52.580;9.734;2023-04-12T13:17:54;7.72;;;3.47;;
75191;SDS011;63771;52.580;9.734;2023-04-12T13:20:19;5.45;;;3.45;;
75191;SDS011;63771;52.580;9.734;2023-04-12T13:22:48;3.05;;;2.85;;
75191;SDS011;63771;52.580;9.734;2023-04-12T13:25:15;3.08;;;2.80;;
75191;SDS011;63771;52.580;9.734;2023-04-12T13:27:40;4.43;;;2.23;;
75191;SDS011;63771;52.580;9.734;2023-04-12T13:30:06;4.60;;;2.40;;
75191;SDS011;63771;52.580;9.734;2023-04-12T13:32:32;3.65;;;2.05;;
75191;SDS011;63771;52.580;9.734;2023-04-12T13:34:57;3.53;;;2.10;;
75191;SDS011;63771;52.580;9.734;2023-04-12T13:37:22;6.03;;;3.17;;
75191;SDS011;63771;52.580;9.734;2023-04-12T13:39:49;6.40;;;3.00;;
75191;SDS011;63771;52.580;9.734;2023-04-12T13:42:15;3.17;;;2.22;;
75191;SDS011;63771;52.580;9.734;2023-04-12T13:44:40;6.70;;;2.40;;
75191;SDS011;63771;52.580;9.734;2023-04-12T13:47:06;2.30;;;2.20;;
75191;SDS011;63771;52.580;9.734;2023-04-12T13:49:31;2.40;;;2.30;;
75191;SDS011;63771;52.580;9.734;2023-04-12T13:51:56;2.63;;;2.33;;
75191;SDS011;63771;52.580;9.734;2023-04-12T13:54:22;2.15;;;1.95;;
75191;SDS011;63771;52.580;9.734;2023-04-12T13:56:47;1.92;;;1.83;;
75191;SDS011;63771;52.580;9.734;2023-04-12T13:59:12;2.33;;;2.13;;
75191;SDS011;63771;52.580;9.734;2023-04-12T14:01:38;2.03;;;1.92;;
75191;SDS011;63771;52.580;9.734;2023-04-12T14:04:04;3.05;;;2.10;;
75191;SDS011;63771;52.580;9.734;2023-04-12T14:06:31;3.10;;;1.70;;
75191;SDS011;63771;52.580;9.734;2023-04-12T14:08:56;3.22;;;2.00;;
75191;SDS011;63771;52.580;9.734;2023-04-12T14:11:22;2.90;;;2.33;;
75191;SDS011;63771;52.580;9.734;2023-04-12T14:13:48;7.70;;;2.60;;
75191;SDS011;63771;52.580;9.734;2023-04-12T14:16:14;3.43;;;2.30;;
75191;SDS011;63771;52.580;9.734;2023-04-12T14:18:39;1.95;;;1.85;;
75191;SDS011;63771;52.580;9.734;2023-04-12T14:21:05;2.33;;;2.13;;
75191;SDS011;63771;52.580;9.734;2023-04-12T14:23:30;2.60;;;2.15;;
75191;SDS011;63771;52.580;9.734;2023-04-12T14:25:56;6.15;;;2.80;;
75191;SDS011;63771;52.580;9.734;2023-04-12T14:28:21;4.93;;;2.93;;
75191;SDS011;63771;52.580;9.734;2023-04-12T14:30:49;6.13;;;3.97;;
75191;SDS011;63771;52.580;9.734;2023-04-12T14:33:15;4.10;;;3.80;;
75191;SDS011;63771;52.580;9.734;2023-04-12T14:35:43;3.20;;;2.92;;
75191;SDS011;63771;52.580;9.734;2023-04-12T14:38:09;3.93;;;2.70;;
75191;SDS011;63771;52.580;9.734;2023-04-12T14:40:34;3.03;;;2.83;;
75191;SDS011;63771;52.580;9.734;2023-04-12T14:43:00;2.83;;;2.42;;
75191;SDS011;63771;52.580;9.734;2023-04-12T14:45:25;2.07;;;1.97;;
75191;SDS011;63771;52.580;9.734;2023-04-12T14:47:51;1.98;;;1.88;;
75191;SDS011;63771;52.580;9.734;2023-04-12T14:50:17;1.75;;;1.65;;
75191;SDS011;63771;52.580;9.734;2023-04-12T14:52:42;1.90;;;1.80;;
75191;SDS011;63771;52.580;9.734;2023-04-12T14:55:08;2.33;;;2.13;;
75191;SDS011;63771;52.580;9.734;2023-04-12T14:57:34;2.33;;;2.22;;
75191;SDS011;63771;52.580;9.734;2023-04-12T14:59:59;3.67;;;2.40;;
75191;SDS011;63771;52.580;9.734;2023-04-12T15:02:25;8.77;;;2.17;;
75191;SDS011;63771;52.580;9.734;2023-04-12T15:04:51;3.08;;;2.20;;
75191;SDS011;63771;52.580;9.734;2023-04-12T15:07:16;2.40;;;2.20;;
75191;SDS011;63771;52.580;9.734;2023-04-12T15:09:41;1.83;;;1.73;;
75191;SDS011;63771;52.580;9.734;2023-04-12T15:12:08;2.20;;;2.00;;
75191;SDS011;63771;52.580;9.734;2023-04-12T15:14:34;2.03;;;1.92;;
75191;SDS011;63771;52.580;9.734;2023-04-12T15:16:59;2.65;;;2.20;;
75191;SDS011;63771;52.580;9.734;2023-04-12T15:19:25;2.03;;;1.85;;
75191;SDS011;63771;52.580;9.734;2023-04-12T15:21:51;2.25;;;1.80;;
75191;SDS011;63771;52.580;9.734;2023-04-12T15:24:19;2.10;;;1.90;;
75191;SDS011;63771;52.580;9.734;2023-04-12T15:26:49;2.20;;;2.10;;
75191;SDS011;63771;52.580;9.734;2023-04-12T15:29:16;3.88;;;2.00;;